Portada
METAR-TAF:

METAR-TAF

Aeroports :

Malé, Maldives

latitud: 04-12N, longitud: 073-32E, altitud: 2 m

Observació

L'informe es va fer fa 1 hora i 1 minuts, a les 20:00 UTC
Vent 12 kt del Oest/Nord-Oest
Temperatura 29°C
Humitat 79%
Pressió 1009 hPa
Visibilitat 10 km o més
Escasses núvols a una alçada de 1800 ft
Cel ennuvolat a una alçada de 28000 ft

METAR: VRMM 192000Z 29012KT 9999 FEW018 BKN280 29/25 Q1009 NOSIG

Hora: 02:01 (21:01 UTC)

Pronòstic

L'informe es va fer fa 4 hores i 1 minuts, a les 17:00 UTC
Pronòstic vàlid del 19 a les 18 UTC al 20 a les 24 UTC
Vent 13 kt del Oest/Nord-Oest
Visibilitat 10 km o més
Escasses núvols a una alçada de 1800 ft, Cumulus congestus.
Temporalment
l' 19 a les 18 UTC al 19 a les 24 UTC
Escasses núvols a una alçada de 1800 ft, Cumulonimbus.

TAF: VRMM 191700Z 1918/2024 29013KT 9999 FEW018TCU TEMPO 1918/1924 FEW018CB

Observacions i pronòstics meteorològics de més de 4000 aeroports (METAR i TAF).

Les estacions disponibles són els punts grocs i vermells al mapa.

Posi el ratolí al punt desitjat per veure el nom de l'estació.

Feu clic per veure les observacions i els pronòstics meteorològics.

Per canviar el mapa: feu clic els botons verds amb una creu de color negre per apropar; al botó verd amb un guió per allunyar la imatge; o en les fletxes verdes per a mapes adjacents.


METAR-TAF: